Bookmark and Share
Track history (hours):
 

Midnight Sun

Last reported at 2014-Apr-24 05:31 UTC. Time now 2014-Apr-24 06:14 UTC.
Position N 49°18' W 123°08'.

Length 25 m; draft 3.1 m.

Type: Pleasure craft. MMSI: 316001152.

NotesDate/timePositionNaut miles runAvg speedWind from/ knotsBaromVisibWave heightAir tempDewpointWater temp
2014-Apr-24 05:31N 49°18' W 123°08'0 0.0
2014-Apr-24 04:31N 49°18' W 123°08'0 0.0
2014-Apr-24 03:33N 49°18' W 123°08'0 0.0
2014-Apr-24 02:32N 49°18' W 123°08'0 0.0
2014-Apr-24 01:32N 49°18' W 123°08'0 0.0
2014-Apr-24 00:32N 49°18' W 123°08'0 0.0
2014-Apr-23 23:32N 49°18' W 123°08'0 0.0
2014-Apr-23 22:32N 49°18' W 123°08'0 0.0
2014-Apr-23 21:32N 49°18' W 123°08'0 0.0
2014-Apr-23 20:32N 49°18' W 123°08'0 0.0
2014-Apr-23 19:32N 49°18' W 123°08'0 0.0
2014-Apr-23 18:32N 49°18' W 123°08'0 0.0
2014-Apr-23 17:32N 49°18' W 123°08'0 0.0
2014-Apr-23 16:32N 49°18' W 123°08'0 0.0
2014-Apr-23 15:32N 49°18' W 123°08'0 0.0
2014-Apr-23 14:32N 49°18' W 123°08'0 0.0
2014-Apr-23 13:32N 49°18' W 123°08'0 0.0
2014-Apr-23 12:32N 49°18' W 123°08'0 0.0
2014-Apr-23 11:32N 49°18' W 123°08'0 0.0
2014-Apr-23 10:32N 49°18' W 123°08'0 0.0
2014-Apr-23 09:32N 49°18' W 123°08'0 0.0
2014-Apr-23 08:33N 49°18' W 123°08'0 0.0
2014-Apr-23 07:32N 49°18' W 123°08'0 0.0
2014-Apr-23 06:29N 49°18' W 123°08'0 0.0
2014-Apr-23 05:29N 49°18' W 123°08'0 0.0
2014-Apr-23 04:32N 49°18' W 123°08'0 0.0
2014-Apr-23 03:32N 49°18' W 123°08'0 0.0
2014-Apr-23 02:31N 49°18' W 123°08'0 0.0
2014-Apr-23 01:32N 49°18' W 123°08'0 0.0
2014-Apr-23 00:32N 49°18' W 123°08'0 0.0
2014-Apr-22 23:32N 49°18' W 123°08'0 0.0
2014-Apr-22 22:32N 49°18' W 123°08'0 0.0
2014-Apr-22 21:31N 49°18' W 123°08'0 0.0
2014-Apr-22 20:31N 49°18' W 123°08'0 0.0
2014-Apr-22 19:32N 49°18' W 123°08'0 0.0
2014-Apr-22 18:32N 49°18' W 123°08'0 0.0
2014-Apr-22 17:31N 49°18' W 123°08'0 0.0
2014-Apr-22 16:31N 49°18' W 123°08'0 0.0
2014-Apr-22 15:31N 49°18' W 123°08'0 0.0
2014-Apr-22 14:31N 49°18' W 123°08'0 0.0
2014-Apr-22 13:31N 49°18' W 123°08'0 0.0
2014-Apr-22 12:31N 49°18' W 123°08'0 0.0
2014-Apr-22 11:32N 49°18' W 123°08'0 0.0
2014-Apr-22 10:29N 49°18' W 123°08'0 0.0
2014-Apr-22 09:31N 49°18' W 123°08'0 0.0
2014-Apr-22 08:32N 49°18' W 123°08'0 0.0
2014-Apr-22 07:31N 49°18' W 123°08'0 0.0
2014-Apr-22 06:31N 49°18' W 123°08'0 0.0
2014-Apr-22 05:32N 49°18' W 123°08'0 0.0
2014-Apr-22 04:32N 49°18' W 123°08'0 0.0
2014-Apr-22 03:32N 49°18' W 123°08'0 0.0
2014-Apr-22 02:31N 49°18' W 123°08'0 0.0
2014-Apr-22 01:31N 49°18' W 123°08'0 0.0
2014-Apr-22 00:31N 49°18' W 123°08'0 0.0
2014-Apr-21 23:32N 49°18' W 123°08'0 0.0
2014-Apr-21 22:32N 49°18' W 123°08'0 0.0
2014-Apr-21 21:31N 49°18' W 123°08'8 7.7
2014-Apr-21 20:33N 49°19' W 122°56'  
2014-Apr-18 02:33N 49°25' W 122°52'8 7.8
2014-Apr-18 01:33N 49°18' W 122°58'6 6.1
2014-Apr-18 00:33N 49°18' W 123°08'6 6.0
2014-Apr-17 23:33N 49°17' W 123°17'9 9.3
2014-Apr-17 22:33N 49°08' W 123°19'8 7.8
2014-Apr-17 21:33N 49°07' W 123°07'7 6.9
2014-Apr-17 20:32N 49°10' W 122°58'0 0.0
2014-Apr-17 19:32N 49°10' W 122°58'0 0.0
2014-Apr-17 18:23N 49°10' W 122°58'0 0.0
2014-Apr-17 17:29N 49°10' W 122°58'0 0.0
2014-Apr-17 16:32N 49°10' W 122°58'0 0.0
2014-Apr-17 15:29N 49°10' W 122°58'  

Dump ship's entire track history

sailing weather and tide predictions

Midnight Sun — CFG7615 — position and weather